createdAt,value
2022-08-21T00:01:33.451Z,58.00
2022-08-21T00:03:59.914Z,58.60
2022-08-21T00:06:26.352Z,58.60
2022-08-21T00:08:52.793Z,58.00
2022-08-21T00:11:19.237Z,58.20
2022-08-21T00:13:45.677Z,58.20
2022-08-21T00:16:12.125Z,58.20
2022-08-21T00:18:38.586Z,58.10
2022-08-21T00:21:05.037Z,57.70
2022-08-21T00:23:31.485Z,58.50
2022-08-21T00:25:57.917Z,58.60
2022-08-21T00:30:51.349Z,57.90
2022-08-21T00:33:17.790Z,57.70
2022-08-21T00:35:44.251Z,57.40
2022-08-21T00:38:10.711Z,58.30
2022-08-21T00:40:37.168Z,58.30
2022-08-21T00:43:03.668Z,58.10
2022-08-21T00:45:30.147Z,57.70
2022-08-21T00:47:56.601Z,58.40
2022-08-21T00:50:23.040Z,58.20
2022-08-21T00:52:49.509Z,57.90
2022-08-21T00:55:16.613Z,58.30
2022-08-21T00:57:43.041Z,57.40
2022-08-21T01:00:09.507Z,57.20
2022-08-21T01:02:35.958Z,57.40
2022-08-21T01:05:02.411Z,58.30
2022-08-21T01:07:28.852Z,58.00
2022-08-21T01:09:55.295Z,58.00
2022-08-21T01:12:21.749Z,57.60
2022-08-21T01:14:48.197Z,58.10
2022-08-21T01:17:14.629Z,58.10
2022-08-21T01:19:41.071Z,57.50
2022-08-21T01:22:07.512Z,57.40
2022-08-21T01:24:33.948Z,57.40
2022-08-21T01:27:00.386Z,58.20
2022-08-21T01:29:26.850Z,57.50
2022-08-21T01:31:53.293Z,58.10
2022-08-21T01:34:19.746Z,58.20
2022-08-21T01:36:46.218Z,57.40
2022-08-21T01:39:12.674Z,57.20
2022-08-21T01:41:39.125Z,57.50
2022-08-21T01:44:05.592Z,57.30
2022-08-21T01:46:32.060Z,58.50
2022-08-21T01:48:58.522Z,58.10
2022-08-21T01:51:24.978Z,57.30
2022-08-21T01:53:51.416Z,57.90
2022-08-21T01:56:17.873Z,57.90
2022-08-21T01:58:44.355Z,58.00
2022-08-21T02:01:10.835Z,57.30
2022-08-21T02:03:37.317Z,58.10
2022-08-21T02:06:03.778Z,58.10
2022-08-21T02:08:30.216Z,58.00
2022-08-21T02:13:23.629Z,57.00
2022-08-21T02:15:50.065Z,57.40
2022-08-21T02:18:16.525Z,57.80
2022-08-21T02:20:43.473Z,57.80
2022-08-21T02:23:09.917Z,57.10
2022-08-21T02:25:36.369Z,57.80
2022-08-21T02:28:02.801Z,57.90
2022-08-21T02:30:29.245Z,56.80
2022-08-21T02:32:55.701Z,57.00
2022-08-21T02:35:22.174Z,57.50
2022-08-21T02:37:48.640Z,57.90
2022-08-21T02:40:15.156Z,57.30
2022-08-21T02:42:41.628Z,57.00
2022-08-21T02:45:08.104Z,58.00
2022-08-21T02:47:34.544Z,58.30
2022-08-21T02:50:01.002Z,57.20
2022-08-21T02:52:27.442Z,57.00
2022-08-21T02:54:53.897Z,57.20
2022-08-21T02:57:20.344Z,56.80
2022-08-21T02:59:46.810Z,57.00
2022-08-21T03:02:13.273Z,57.70
2022-08-21T03:04:43.351Z,57.60
2022-08-21T03:07:12.529Z,57.70
2022-08-21T03:12:05.966Z,57.40
2022-08-21T03:14:32.405Z,57.70
2022-08-21T03:16:58.861Z,57.50
2022-08-21T03:21:52.326Z,57.00
2022-08-21T03:24:19.638Z,57.60
2022-08-21T03:26:48.202Z,57.10
2022-08-21T03:29:14.661Z,57.20
2022-08-21T03:31:41.102Z,57.00
2022-08-21T03:34:07.568Z,56.60
2022-08-21T03:36:34.699Z,57.80
2022-08-21T03:39:01.158Z,56.60
2022-08-21T03:41:27.624Z,57.50
2022-08-21T03:43:54.069Z,57.40
2022-08-21T03:48:47.505Z,56.80
2022-08-21T03:51:13.957Z,56.40
2022-08-21T03:56:07.395Z,56.60
2022-08-21T03:58:33.832Z,56.60
2022-08-21T04:01:00.307Z,56.90
2022-08-21T04:03:26.757Z,57.60
2022-08-21T04:05:53.208Z,56.80
2022-08-21T04:08:19.706Z,57.40
2022-08-21T04:10:46.160Z,56.80
2022-08-21T04:13:12.603Z,57.70
2022-08-21T04:15:39.068Z,56.30
2022-08-21T04:18:05.531Z,57.80
2022-08-21T04:20:31.979Z,56.50
2022-08-21T04:22:58.502Z,57.50
2022-08-21T04:25:25.108Z,57.40
2022-08-21T04:27:51.547Z,56.40
2022-08-21T04:30:17.992Z,56.40
2022-08-21T04:35:11.430Z,56.50
2022-08-21T04:37:41.576Z,57.00
2022-08-21T04:40:08.698Z,56.40
2022-08-21T04:42:35.165Z,55.90
2022-08-21T04:45:01.634Z,57.00
2022-08-21T04:47:52.020Z,57.00
2022-08-21T04:50:16.390Z,55.90
2022-08-21T04:52:42.840Z,57.00
2022-08-21T04:55:09.273Z,56.50
2022-08-21T04:57:48.364Z,56.70
2022-08-21T05:00:15.781Z,56.40
2022-08-21T05:02:42.242Z,57.20
2022-08-21T05:05:08.693Z,56.50
2022-08-21T05:07:42.080Z,57.00
2022-08-21T05:10:09.528Z,55.70
2022-08-21T05:12:35.984Z,56.20
2022-08-21T05:15:03.343Z,56.00
2022-08-21T05:17:29.787Z,56.90
2022-08-21T05:19:56.234Z,56.50
2022-08-21T05:22:22.687Z,51.20
2022-08-21T05:24:49.165Z,50.80
2022-08-21T05:27:17.796Z,49.60
2022-08-21T05:29:44.349Z,49.50
2022-08-21T05:32:10.784Z,49.50
2022-08-21T05:34:37.226Z,49.50
2022-08-21T05:37:07.561Z,49.90
2022-08-21T05:40:04.652Z,49.90
2022-08-21T05:42:20.737Z,50.40
2022-08-21T05:44:47.181Z,50.80
2022-08-21T05:47:15.268Z,50.80
2022-08-21T05:49:41.697Z,51.00
2022-08-21T05:52:08.139Z,50.80
2022-08-21T05:54:34.585Z,51.90
2022-08-21T05:57:01.024Z,51.20
2022-08-21T05:59:27.495Z,51.20
2022-08-21T06:01:53.971Z,52.00
2022-08-21T06:04:20.464Z,52.00
2022-08-21T06:06:46.908Z,52.20
2022-08-21T06:09:13.402Z,52.70
2022-08-21T06:11:39.873Z,52.50
2022-08-21T06:14:06.392Z,53.10
2022-08-21T06:16:32.838Z,53.40
2022-08-21T06:19:02.814Z,53.90
2022-08-21T06:21:29.641Z,53.60
2022-08-21T06:23:56.090Z,53.40
2022-08-21T06:28:49.538Z,53.90
2022-08-21T06:31:15.985Z,54.00
2022-08-21T06:33:42.440Z,54.40
2022-08-21T06:36:08.897Z,54.30
2022-08-21T06:38:35.350Z,54.80
2022-08-21T06:41:02.348Z,55.00
2022-08-21T06:43:37.855Z,55.00
2022-08-21T06:46:06.429Z,54.60
2022-08-21T06:48:32.890Z,55.30
2022-08-21T06:50:59.337Z,54.90
2022-08-21T06:53:25.782Z,55.50
2022-08-21T06:55:52.237Z,55.50
2022-08-21T06:58:18.681Z,55.50
2022-08-21T07:00:45.125Z,55.10
2022-08-21T07:03:11.568Z,55.30
2022-08-21T07:05:38.025Z,55.00
2022-08-21T07:08:04.478Z,55.50
2022-08-21T07:10:30.922Z,55.00
2022-08-21T07:13:00.057Z,55.30
2022-08-21T07:15:27.601Z,55.10
2022-08-21T07:17:54.078Z,55.30
2022-08-21T07:20:20.513Z,55.30
2022-08-21T07:22:46.975Z,55.40
2022-08-21T07:25:13.421Z,55.30
2022-08-21T07:27:39.877Z,54.60
2022-08-21T07:30:06.326Z,54.10
2022-08-21T07:32:32.776Z,52.80
2022-08-21T07:34:59.213Z,52.60
2022-08-21T07:37:25.679Z,51.60
2022-08-21T07:39:52.167Z,49.70
2022-08-21T07:42:18.641Z,50.80
2022-08-21T07:44:45.117Z,51.30
2022-08-21T07:49:38.573Z,51.70
2022-08-21T07:52:05.028Z,51.90
2022-08-21T07:54:33.937Z,52.10
2022-08-21T07:57:01.093Z,52.30
2022-08-21T07:59:27.542Z,52.60
2022-08-21T08:01:54.009Z,52.50
2022-08-21T08:04:24.468Z,52.90
2022-08-21T08:06:52.740Z,52.40
2022-08-21T08:09:19.190Z,53.00
2022-08-21T08:11:45.640Z,51.80
2022-08-21T08:14:12.083Z,51.60
2022-08-21T08:16:38.516Z,52.20
2022-08-21T08:19:04.965Z,52.00
2022-08-21T08:21:31.424Z,51.40
2022-08-21T08:23:59.605Z,51.30
2022-08-21T08:26:45.107Z,52.20
2022-08-21T08:29:17.045Z,51.80
2022-08-21T08:31:43.490Z,52.20
2022-08-21T08:34:09.946Z,49.80
2022-08-21T08:36:49.763Z,51.20
2022-08-21T08:39:26.655Z,51.70
2022-08-21T08:41:58.768Z,50.10
2022-08-21T08:44:25.329Z,50.40
2022-08-21T08:46:57.410Z,51.20
2022-08-21T08:49:26.375Z,51.50
2022-08-21T08:51:53.270Z,51.50
2022-08-21T08:54:19.861Z,50.20
2022-08-21T08:56:46.315Z,49.50
2022-08-21T08:59:12.785Z,48.10
2022-08-21T09:01:39.731Z,48.10
2022-08-21T09:04:06.193Z,49.10
2022-08-21T09:06:32.626Z,48.30
2022-08-21T09:08:59.056Z,48.20
2022-08-21T09:11:25.508Z,49.30
2022-08-21T09:13:51.969Z,49.20
2022-08-21T09:16:18.408Z,49.30
2022-08-21T09:18:44.917Z,49.40
2022-08-21T09:21:11.359Z,49.00
2022-08-21T09:23:37.814Z,49.70
2022-08-21T09:26:04.261Z,49.10
2022-08-21T09:28:30.713Z,50.80
2022-08-21T09:30:57.178Z,50.10
2022-08-21T09:33:23.617Z,52.00
2022-08-21T09:35:50.077Z,51.80
2022-08-21T09:38:16.525Z,50.70
2022-08-21T09:40:42.981Z,51.60
2022-08-21T09:43:09.424Z,51.30
2022-08-21T09:45:35.873Z,51.40
2022-08-21T09:48:02.314Z,50.80
2022-08-21T09:50:28.767Z,51.00
2022-08-21T09:52:56.755Z,51.20
2022-08-21T09:55:23.269Z,51.70
2022-08-21T09:57:50.472Z,51.10
2022-08-21T10:00:17.147Z,51.90
2022-08-21T10:02:43.610Z,51.10
2022-08-21T10:05:10.067Z,51.60
2022-08-21T10:07:36.538Z,51.20
2022-08-21T10:10:03.002Z,51.20
2022-08-21T10:12:29.488Z,51.00
2022-08-21T10:14:55.937Z,50.70
2022-08-21T10:17:22.384Z,51.60
2022-08-21T10:19:48.839Z,51.30
2022-08-21T10:22:15.295Z,52.10
2022-08-21T10:24:41.754Z,52.00
2022-08-21T10:27:08.210Z,51.60
2022-08-21T10:29:34.691Z,52.10
2022-08-21T10:32:01.149Z,52.00
2022-08-21T10:34:27.609Z,51.10
2022-08-21T10:36:54.067Z,51.60
2022-08-21T10:39:35.398Z,51.80
2022-08-21T10:42:02.743Z,51.10
2022-08-21T10:44:29.184Z,51.80
2022-08-21T10:46:55.649Z,51.70
2022-08-21T10:49:22.104Z,51.60
2022-08-21T10:51:48.546Z,50.40
2022-08-21T10:56:44.660Z,50.00
2022-08-21T10:59:11.119Z,50.90
2022-08-21T11:01:37.599Z,50.00
2022-08-21T11:04:04.045Z,49.80
2022-08-21T11:06:32.092Z,48.20
2022-08-21T11:08:58.567Z,48.80
2022-08-21T11:11:25.237Z,49.10
2022-08-21T11:13:56.164Z,49.50
2022-08-21T11:16:22.642Z,49.60
2022-08-21T11:18:49.091Z,50.20
2022-08-21T11:21:15.530Z,49.80
2022-08-21T11:26:08.993Z,50.00
2022-08-21T11:28:35.450Z,50.60
2022-08-21T11:31:01.895Z,49.50
2022-08-21T11:33:28.357Z,49.90
2022-08-21T11:38:21.819Z,50.10
2022-08-21T11:40:48.281Z,50.60
2022-08-21T11:43:15.261Z,49.00
2022-08-21T11:45:41.717Z,50.50
2022-08-21T11:48:08.171Z,49.80
2022-08-21T11:50:36.071Z,48.60
2022-08-21T11:53:02.897Z,49.40
2022-08-21T11:55:29.345Z,49.60
2022-08-21T11:57:55.807Z,49.90
2022-08-21T12:00:22.265Z,50.00
2022-08-21T12:02:48.817Z,49.30
2022-08-21T12:05:15.341Z,49.10
2022-08-21T12:10:08.829Z,48.70
2022-08-21T12:12:35.289Z,49.90
2022-08-21T12:15:01.739Z,49.10
2022-08-21T12:17:28.197Z,48.70
2022-08-21T12:19:54.665Z,49.40
2022-08-21T12:22:21.116Z,48.00
2022-08-21T12:24:49.328Z,48.60
2022-08-21T12:27:15.790Z,48.30
2022-08-21T12:29:42.244Z,49.50
2022-08-21T12:32:08.692Z,48.20
2022-08-21T12:34:35.137Z,48.70
2022-08-21T12:37:01.596Z,49.80
2022-08-21T12:39:28.062Z,48.20
2022-08-21T12:41:56.203Z,49.00
2022-08-21T12:44:25.452Z,48.40
2022-08-21T12:46:51.913Z,48.80
2022-08-21T12:49:18.352Z,48.60
2022-08-21T12:51:44.800Z,48.00
2022-08-21T12:54:11.241Z,48.50
2022-08-21T12:56:37.752Z,48.70
2022-08-21T12:59:04.206Z,47.90
2022-08-21T13:01:30.674Z,48.10
2022-08-21T13:04:04.422Z,48.30
2022-08-21T13:06:31.484Z,48.70
2022-08-21T13:08:57.952Z,47.70
2022-08-21T13:11:25.239Z,48.00
2022-08-21T13:14:04.587Z,46.50
2022-08-21T13:16:31.998Z,46.60
2022-08-21T13:18:58.498Z,44.50
2022-08-21T13:21:24.963Z,45.20
2022-08-21T13:23:51.435Z,45.80
2022-08-21T13:26:18.740Z,47.50
2022-08-21T13:28:45.320Z,48.20
2022-08-21T13:31:12.270Z,47.20
2022-08-21T13:33:38.749Z,47.40
2022-08-21T13:36:05.192Z,47.90
2022-08-21T13:38:31.656Z,48.10
2022-08-21T13:40:58.109Z,47.90
2022-08-21T13:43:24.567Z,49.00
2022-08-21T13:45:51.006Z,49.30
2022-08-21T13:48:17.475Z,49.10
2022-08-21T13:50:43.936Z,49.80
2022-08-21T13:53:10.378Z,49.30
2022-08-21T13:55:36.833Z,49.50
2022-08-21T13:58:03.308Z,50.90
2022-08-21T14:00:29.770Z,51.10
2022-08-21T14:02:56.217Z,50.10
2022-08-21T14:05:22.694Z,50.90
2022-08-21T14:07:49.140Z,50.00
2022-08-21T14:10:15.595Z,49.90
2022-08-21T14:12:42.082Z,51.00
2022-08-21T14:15:08.556Z,50.20
2022-08-21T14:17:35.005Z,50.10
2022-08-21T14:20:01.454Z,51.40
2022-08-21T14:22:27.913Z,51.10
2022-08-21T14:24:55.195Z,50.70
2022-08-21T14:27:21.769Z,51.20
2022-08-21T14:29:48.207Z,51.60
2022-08-21T14:32:24.523Z,51.30
2022-08-21T14:34:51.899Z,50.40
2022-08-21T14:37:18.665Z,51.30
2022-08-21T14:39:45.413Z,51.00
2022-08-21T14:42:11.954Z,51.50
2022-08-21T14:44:38.414Z,50.90
2022-08-21T14:47:04.847Z,51.10
2022-08-21T14:49:31.294Z,50.80
2022-08-21T14:51:57.758Z,51.10
2022-08-21T14:54:30.705Z,51.20
2022-08-21T14:56:58.265Z,50.70
2022-08-21T14:59:24.742Z,52.30
2022-08-21T15:01:51.283Z,51.10
2022-08-21T15:04:17.778Z,51.20
2022-08-21T15:06:44.234Z,51.30
2022-08-21T15:09:10.704Z,51.20
2022-08-21T15:11:41.761Z,51.40
2022-08-21T15:14:09.463Z,51.20
2022-08-21T15:16:35.924Z,52.30
2022-08-21T15:19:02.381Z,51.50
2022-08-21T15:21:28.812Z,51.40
2022-08-21T15:23:55.285Z,51.60
2022-08-21T15:26:21.712Z,52.10
2022-08-21T15:28:48.176Z,51.30
2022-08-21T15:31:14.620Z,51.30
2022-08-21T15:33:41.053Z,52.60
2022-08-21T15:36:07.495Z,52.10
2022-08-21T15:38:33.942Z,52.20
2022-08-21T15:41:00.401Z,51.60
2022-08-21T15:43:30.040Z,52.20
2022-08-21T15:45:56.988Z,51.50
2022-08-21T15:48:23.439Z,52.30
2022-08-21T15:50:49.898Z,51.90
2022-08-21T15:53:16.369Z,52.20
2022-08-21T15:55:42.813Z,51.50
2022-08-21T15:58:09.261Z,51.40
2022-08-21T16:00:35.705Z,52.40
2022-08-21T16:03:02.185Z,52.70
2022-08-21T16:05:28.691Z,51.80
2022-08-21T16:07:55.144Z,51.50
2022-08-21T16:10:21.582Z,52.10
2022-08-21T16:12:48.061Z,52.80
2022-08-21T16:15:20.414Z,51.80
2022-08-21T16:17:47.189Z,52.00
2022-08-21T16:20:13.621Z,52.20
2022-08-21T16:22:44.591Z,52.00
2022-08-21T16:25:11.509Z,53.10
2022-08-21T16:30:04.946Z,52.30
2022-08-21T16:32:31.380Z,53.00
2022-08-21T16:34:57.834Z,52.30
2022-08-21T16:37:24.557Z,52.40
2022-08-21T16:39:51.211Z,52.70
2022-08-21T16:42:20.412Z,52.60
2022-08-21T16:44:49.309Z,52.60
2022-08-21T16:47:26.386Z,52.30
2022-08-21T16:49:53.807Z,52.50
2022-08-21T16:52:20.253Z,52.50
2022-08-21T16:54:46.709Z,53.40
2022-08-21T16:59:40.163Z,52.50
2022-08-21T17:02:06.616Z,52.70
2022-08-21T17:04:33.071Z,53.20
2022-08-21T17:06:59.512Z,52.20
2022-08-21T17:09:25.966Z,52.60
2022-08-21T17:11:52.411Z,52.90
2022-08-21T17:14:18.869Z,53.90
2022-08-21T17:16:45.336Z,53.50
2022-08-21T17:19:11.779Z,53.00
2022-08-21T17:21:38.223Z,52.50
2022-08-21T17:24:04.665Z,52.40
2022-08-21T17:26:31.102Z,53.30
2022-08-21T17:28:57.574Z,53.10
2022-08-21T17:31:24.019Z,52.80
2022-08-21T17:33:50.489Z,53.40
2022-08-21T17:36:16.932Z,53.40
2022-08-21T17:38:43.369Z,53.10
2022-08-21T17:41:09.900Z,53.20
2022-08-21T17:43:36.345Z,52.90
2022-08-21T17:46:02.793Z,52.80
2022-08-21T17:48:29.233Z,52.70
2022-08-21T17:50:55.692Z,53.50
2022-08-21T17:53:22.171Z,52.70
2022-08-21T17:55:48.649Z,52.90
2022-08-21T17:58:15.153Z,53.00
2022-08-21T18:00:41.665Z,53.20
2022-08-21T18:03:08.142Z,53.10
2022-08-21T18:05:34.622Z,53.60
2022-08-21T18:08:01.064Z,54.10
2022-08-21T18:10:27.497Z,53.90
2022-08-21T18:15:20.940Z,53.90
2022-08-21T18:17:47.373Z,53.70
2022-08-21T18:20:13.830Z,54.00
2022-08-21T18:25:07.291Z,53.40
2022-08-21T18:27:33.746Z,54.00
2022-08-21T18:30:00.226Z,53.50
2022-08-21T18:34:57.953Z,54.20
2022-08-21T18:37:24.397Z,53.60
2022-08-21T18:39:50.879Z,53.30
2022-08-21T18:42:17.425Z,54.00
2022-08-21T18:44:44.019Z,53.80
2022-08-21T18:47:10.457Z,52.90
2022-08-21T18:49:36.897Z,53.00
2022-08-21T18:52:03.459Z,53.30
2022-08-21T18:54:30.304Z,54.00
2022-08-21T18:56:56.767Z,53.30
2022-08-21T18:59:23.708Z,54.00
2022-08-21T19:01:51.078Z,53.40
2022-08-21T19:04:41.063Z,54.10
2022-08-21T19:07:03.962Z,53.50
2022-08-21T19:09:30.412Z,54.30
2022-08-21T19:11:56.847Z,53.40
2022-08-21T19:14:23.292Z,53.40
2022-08-21T19:16:51.417Z,54.30
2022-08-21T19:19:17.885Z,53.70
2022-08-21T19:21:44.349Z,54.10
2022-08-21T19:24:17.904Z,54.10
2022-08-21T19:26:44.659Z,53.70
2022-08-21T19:29:11.112Z,53.90
2022-08-21T19:31:37.558Z,54.00
2022-08-21T19:34:04.595Z,54.10
2022-08-21T19:36:31.042Z,55.00
2022-08-21T19:38:57.848Z,54.70
2022-08-21T19:41:25.160Z,54.90
2022-08-21T19:43:51.673Z,54.80
2022-08-21T19:46:18.129Z,55.30
2022-08-21T19:48:46.788Z,55.30
2022-08-21T19:51:13.382Z,54.40
2022-08-21T19:53:39.822Z,54.30
2022-08-21T19:56:06.274Z,54.50
2022-08-21T19:58:32.735Z,54.30
2022-08-21T20:00:59.279Z,54.40
2022-08-21T20:03:25.762Z,54.90
2022-08-21T20:05:52.205Z,54.60
2022-08-21T20:08:20.794Z,53.90
2022-08-21T20:10:47.266Z,54.10
2022-08-21T20:13:16.484Z,53.90
2022-08-21T20:15:42.926Z,53.90
2022-08-21T20:18:09.621Z,54.80
2022-08-21T20:20:38.593Z,54.00
2022-08-21T20:23:10.732Z,55.00
2022-08-21T20:25:37.509Z,53.80
2022-08-21T20:28:05.067Z,54.20
2022-08-21T20:30:31.535Z,54.00
2022-08-21T20:32:58.092Z,54.80
2022-08-21T20:35:24.647Z,53.70
2022-08-21T20:37:58.776Z,54.50
2022-08-21T20:40:37.604Z,53.60
2022-08-21T20:43:04.046Z,54.60
2022-08-21T20:45:30.503Z,53.80
2022-08-21T20:47:57.521Z,53.90
2022-08-21T20:50:23.977Z,54.50
2022-08-21T20:52:50.433Z,54.00
2022-08-21T20:55:16.991Z,54.70
2022-08-21T20:57:44.202Z,54.10
2022-08-21T21:02:57.236Z,54.60
2022-08-21T21:05:23.745Z,54.70
2022-08-21T21:10:18.100Z,54.90
2022-08-21T21:12:45.080Z,53.60
2022-08-21T21:15:15.306Z,54.70
2022-08-21T21:17:49.866Z,54.70
2022-08-21T21:20:17.138Z,54.80
2022-08-21T21:22:44.129Z,54.80
2022-08-21T21:25:10.570Z,54.10
2022-08-21T21:27:37.073Z,53.90
2022-08-21T21:30:03.520Z,54.10
2022-08-21T21:32:31.144Z,54.00
2022-08-21T21:34:57.578Z,54.80
2022-08-21T21:37:25.832Z,54.50
2022-08-21T21:39:52.375Z,54.10
2022-08-21T21:42:18.982Z,54.10
2022-08-21T21:44:56.851Z,54.40
2022-08-21T21:47:23.699Z,54.20
2022-08-21T21:49:50.638Z,54.00
2022-08-21T21:52:17.102Z,54.70
2022-08-21T21:54:43.544Z,54.10
2022-08-21T21:57:10.600Z,54.70
2022-08-21T21:59:37.255Z,53.80
2022-08-21T22:02:06.101Z,53.80
2022-08-21T22:04:32.592Z,54.70
2022-08-21T22:06:59.041Z,53.90
2022-08-21T22:09:25.678Z,54.50
2022-08-21T22:11:55.412Z,53.80
2022-08-21T22:14:22.714Z,53.90
2022-08-21T22:16:49.320Z,54.00
2022-08-21T22:19:15.806Z,53.90
2022-08-21T22:21:42.259Z,53.80
2022-08-21T22:24:08.702Z,54.70
2022-08-21T22:26:38.018Z,53.70
2022-08-21T22:29:05.692Z,53.90
2022-08-21T22:31:33.233Z,54.10
2022-08-21T22:33:59.681Z,53.40
2022-08-21T22:36:26.126Z,54.60
2022-08-21T22:38:53.112Z,53.80
2022-08-21T22:41:19.824Z,54.40
2022-08-21T22:43:46.842Z,53.50
2022-08-21T22:46:13.869Z,53.90
2022-08-21T22:48:46.511Z,54.40
2022-08-21T22:51:13.080Z,53.50
2022-08-21T22:53:39.539Z,53.70
2022-08-21T22:56:06.002Z,54.30
2022-08-21T22:58:32.443Z,53.40
2022-08-21T23:00:58.949Z,53.50
2022-08-21T23:03:25.465Z,54.40
2022-08-21T23:05:51.960Z,53.70
2022-08-21T23:11:05.131Z,54.10
2022-08-21T23:15:58.674Z,53.50
2022-08-21T23:18:25.264Z,54.30
2022-08-21T23:23:22.674Z,53.30
2022-08-21T23:25:49.122Z,54.50
2022-08-21T23:28:15.584Z,53.60
2022-08-21T23:30:45.453Z,54.10
2022-08-21T23:33:11.890Z,53.10
2022-08-21T23:35:38.339Z,54.30
2022-08-21T23:40:35.950Z,54.90
2022-08-21T23:43:02.772Z,54.70
2022-08-21T23:45:32.960Z,54.10
2022-08-21T23:47:59.685Z,53.30
2022-08-21T23:50:26.129Z,53.10
2022-08-21T23:52:52.561Z,53.20
2022-08-21T23:55:19.016Z,53.60
